createdAt,value
2024-04-23T00:01:19.664Z,3.50
2024-04-23T00:03:46.771Z,3.50
2024-04-23T00:06:13.811Z,3.50
2024-04-23T00:08:40.898Z,3.50
2024-04-23T00:11:11.068Z,3.40
2024-04-23T00:13:38.399Z,3.40
2024-04-23T00:16:06.046Z,3.40
2024-04-23T00:18:33.348Z,3.30
2024-04-23T00:21:00.430Z,3.30
2024-04-23T00:23:27.605Z,3.30
2024-04-23T00:25:54.698Z,3.30
2024-04-23T00:28:24.476Z,3.30
2024-04-23T00:30:51.519Z,3.20
2024-04-23T00:33:18.722Z,3.20
2024-04-23T00:35:45.838Z,3.20
2024-04-23T00:38:12.887Z,3.20
2024-04-23T00:40:39.905Z,3.10
2024-04-23T00:43:06.956Z,3.10
2024-04-23T00:45:44.704Z,3.10
2024-04-23T00:48:13.193Z,3.10
2024-04-23T00:50:40.895Z,3.00
2024-04-23T00:53:08.315Z,3.00
2024-04-23T00:55:36.931Z,3.00
2024-04-23T00:58:04.803Z,2.90
2024-04-23T01:00:32.341Z,2.90
2024-04-23T01:03:02.532Z,2.80
2024-04-23T01:05:29.639Z,2.80
2024-04-23T01:07:56.809Z,2.80
2024-04-23T01:10:24.197Z,2.80
2024-04-23T01:12:51.379Z,2.80
2024-04-23T01:15:18.969Z,2.80
2024-04-23T01:17:49.213Z,2.70
2024-04-23T01:20:20.407Z,2.70
2024-04-23T01:22:57.493Z,2.70
2024-04-23T01:25:25.150Z,2.70
2024-04-23T01:27:55.783Z,2.70
2024-04-23T01:30:24.329Z,2.70
2024-04-23T01:32:52.590Z,2.60
2024-04-23T01:35:20.552Z,2.60
2024-04-23T01:37:51.586Z,2.60
2024-04-23T01:40:19.064Z,2.60
2024-04-23T01:42:47.151Z,2.60
2024-04-23T01:45:17.766Z,2.50
2024-04-23T01:47:45.775Z,2.50
2024-04-23T01:50:12.969Z,2.50
2024-04-23T01:52:40.109Z,2.40
2024-04-23T01:55:08.391Z,2.40
2024-04-23T01:57:35.690Z,2.40
2024-04-23T02:00:05.436Z,2.40
2024-04-23T02:02:38.215Z,2.40
2024-04-23T02:05:08.354Z,2.40
2024-04-23T02:07:35.745Z,2.40
2024-04-23T02:10:03.693Z,2.40
2024-04-23T02:12:30.809Z,2.30
2024-04-23T02:14:57.865Z,2.30
2024-04-23T02:17:25.006Z,2.30
2024-04-23T02:19:54.834Z,2.30
2024-04-23T02:22:21.959Z,2.30
2024-04-23T02:24:49.072Z,2.30
2024-04-23T02:27:16.462Z,2.30
2024-04-23T02:29:43.546Z,2.30
2024-04-23T02:32:11.746Z,2.20
2024-04-23T02:34:38.849Z,2.20
2024-04-23T02:37:08.667Z,2.20
2024-04-23T02:39:35.684Z,2.20
2024-04-23T02:42:02.823Z,2.10
2024-04-23T02:44:31.475Z,2.10
2024-04-23T02:46:58.612Z,2.10
2024-04-23T02:49:25.809Z,2.10
2024-04-23T02:51:54.601Z,2.00
2024-04-23T02:54:24.286Z,2.00
2024-04-23T02:56:52.504Z,2.00
2024-04-23T02:59:21.215Z,2.00
2024-04-23T03:01:48.615Z,2.00
2024-04-23T03:04:15.865Z,2.00
2024-04-23T03:06:42.974Z,1.90
2024-04-23T03:09:10.027Z,1.90
2024-04-23T03:11:39.691Z,1.90
2024-04-23T03:14:06.815Z,1.90
2024-04-23T03:16:33.902Z,1.90
2024-04-23T03:19:00.889Z,1.90
2024-04-23T03:21:28.074Z,1.90
2024-04-23T03:23:55.186Z,1.90
2024-04-23T03:26:22.576Z,1.80
2024-04-23T03:28:52.228Z,1.80
2024-04-23T03:31:19.271Z,1.80
2024-04-23T03:33:47.166Z,1.80
2024-04-23T03:36:17.337Z,1.70
2024-04-23T03:38:45.253Z,1.70
2024-04-23T03:41:12.256Z,1.70
2024-04-23T03:43:39.305Z,1.70
2024-04-23T03:46:08.971Z,1.70
2024-04-23T03:48:36.066Z,1.60
2024-04-23T03:51:03.232Z,1.60
2024-04-23T03:53:30.341Z,1.60
2024-04-23T03:55:57.418Z,1.60
2024-04-23T03:58:24.537Z,1.60
2024-04-23T04:00:51.643Z,1.60
2024-04-23T04:03:40.241Z,1.60
2024-04-23T04:06:08.081Z,1.60
2024-04-23T04:08:36.251Z,1.50
2024-04-23T04:11:04.109Z,1.50
2024-04-23T04:13:31.462Z,1.50
2024-04-23T04:15:58.783Z,1.50
2024-04-23T04:18:28.480Z,1.50
2024-04-23T04:20:55.539Z,1.50
2024-04-23T04:23:22.726Z,1.50
2024-04-23T04:25:50.214Z,1.50
2024-04-23T04:28:17.431Z,1.40
2024-04-23T04:30:44.518Z,1.40
2024-04-23T04:33:11.666Z,1.40
2024-04-23T04:35:41.351Z,1.40
2024-04-23T04:38:08.368Z,1.30
2024-04-23T04:40:36.435Z,1.30
2024-04-23T04:43:03.525Z,1.30
2024-04-23T04:45:30.572Z,1.30
2024-04-23T04:47:57.782Z,1.40
2024-04-23T04:50:24.888Z,1.40
2024-04-23T04:52:54.580Z,1.40
2024-04-23T04:55:23.483Z,1.40
2024-04-23T04:57:51.712Z,1.50
2024-04-23T05:00:18.885Z,1.50
2024-04-23T05:02:46.018Z,1.60
2024-04-23T05:05:13.335Z,1.60
2024-04-23T05:07:40.499Z,1.60
2024-04-23T05:10:11.076Z,1.70
2024-04-23T05:12:38.587Z,1.70
2024-04-23T05:15:06.649Z,1.70
2024-04-23T05:17:33.794Z,1.80
2024-04-23T05:20:01.140Z,1.80
2024-04-23T05:22:29.241Z,1.80
2024-04-23T05:24:56.284Z,1.80
2024-04-23T05:27:25.952Z,1.90
2024-04-23T05:29:55.640Z,1.90
2024-04-23T05:32:43.250Z,1.90
2024-04-23T05:35:10.634Z,2.00
2024-04-23T05:37:37.713Z,2.00
2024-04-23T05:40:05.657Z,2.10
2024-04-23T05:42:35.537Z,2.20
2024-04-23T05:45:02.824Z,2.20
2024-04-23T05:47:30.130Z,2.20
2024-04-23T05:50:35.017Z,2.30
2024-04-23T05:53:59.385Z,2.40
2024-04-23T05:56:45.318Z,2.50
2024-04-23T05:59:14.967Z,2.50
2024-04-23T06:01:42.013Z,2.60
2024-04-23T06:04:09.200Z,2.60
2024-04-23T06:06:36.276Z,2.80
2024-04-23T06:09:03.392Z,2.80
2024-04-23T06:11:31.413Z,2.80
2024-04-23T06:14:06.842Z,2.80
2024-04-23T06:16:36.874Z,2.80
2024-04-23T06:19:04.078Z,2.90
2024-04-23T06:21:31.242Z,3.00
2024-04-23T06:23:58.358Z,3.10
2024-04-23T06:26:26.926Z,3.10
2024-04-23T06:28:54.033Z,3.20
2024-04-23T06:31:21.151Z,3.30
2024-04-23T06:33:50.803Z,3.40
2024-04-23T06:36:17.869Z,3.50
2024-04-23T06:38:44.906Z,3.50
2024-04-23T06:41:17.064Z,3.50
2024-04-23T06:43:44.089Z,3.60
2024-04-23T06:46:11.358Z,3.60
2024-04-23T06:48:38.417Z,3.70
2024-04-23T06:51:08.304Z,3.80
2024-04-23T06:53:35.336Z,3.80
2024-04-23T06:56:02.546Z,3.80
2024-04-23T06:58:31.668Z,3.80
2024-04-23T07:00:59.856Z,3.90
2024-04-23T07:03:26.998Z,4.00
2024-04-23T07:05:54.259Z,4.10
2024-04-23T07:08:23.989Z,4.20
2024-04-23T07:10:56.322Z,4.20
2024-04-23T07:13:23.490Z,4.20
2024-04-23T07:15:50.611Z,4.30
2024-04-23T07:18:17.773Z,4.40
2024-04-23T07:20:44.907Z,4.50
2024-04-23T07:23:11.957Z,4.70
2024-04-23T07:25:41.770Z,4.90
2024-04-23T07:28:08.820Z,5.00
2024-04-23T07:30:36.554Z,5.10
2024-04-23T07:33:03.708Z,5.20
2024-04-23T07:35:31.013Z,5.30
2024-04-23T07:37:58.234Z,5.50
2024-04-23T07:40:25.295Z,5.50
2024-04-23T07:42:54.943Z,5.60
2024-04-23T07:45:21.993Z,5.80
2024-04-23T07:47:49.282Z,5.90
2024-04-23T07:50:16.454Z,6.10
2024-04-23T07:52:43.531Z,6.30
2024-04-23T07:55:10.590Z,6.40
2024-04-23T07:57:37.922Z,6.60
2024-04-23T08:00:10.218Z,6.70
2024-04-23T08:02:37.475Z,6.80
2024-04-23T08:05:05.257Z,6.90
2024-04-23T08:07:32.511Z,7.00
2024-04-23T08:10:02.861Z,7.20
2024-04-23T08:12:29.987Z,7.30
2024-04-23T08:14:57.096Z,7.50
2024-04-23T08:17:27.057Z,7.70
2024-04-23T08:19:54.209Z,7.80
2024-04-23T08:22:21.282Z,7.90
2024-04-23T08:24:48.361Z,7.90
2024-04-23T08:27:15.676Z,8.00
2024-04-23T08:29:42.749Z,8.20
2024-04-23T08:32:09.995Z,8.30
2024-04-23T08:34:39.682Z,8.40
2024-04-23T08:37:07.612Z,8.60
2024-04-23T08:39:34.943Z,8.80
2024-04-23T08:42:02.771Z,9.00
2024-04-23T08:44:31.881Z,9.10
2024-04-23T08:46:59.300Z,9.20
2024-04-23T08:49:27.538Z,9.40
2024-04-23T08:51:57.967Z,9.70
2024-04-23T08:54:25.476Z,10.00
2024-04-23T08:56:52.658Z,10.20
2024-04-23T08:59:20.519Z,10.50
2024-04-23T09:01:50.725Z,10.80
2024-04-23T09:04:18.485Z,11.10
2024-04-23T09:06:46.457Z,11.40
2024-04-23T09:09:17.054Z,11.70
2024-04-23T09:11:46.189Z,12.10
2024-04-23T09:14:13.876Z,12.60
2024-04-23T09:16:41.074Z,13.00
2024-04-23T09:19:08.224Z,13.10
2024-04-23T09:21:37.521Z,13.60
2024-04-23T09:24:05.402Z,13.60
2024-04-23T09:26:35.535Z,13.70
2024-04-23T09:29:03.193Z,13.90
2024-04-23T09:31:36.651Z,14.30
2024-04-23T09:34:05.450Z,14.40
2024-04-23T09:36:34.515Z,14.70
2024-04-23T09:39:03.909Z,15.00
2024-04-23T09:41:32.892Z,15.50
2024-04-23T09:44:03.968Z,15.80
2024-04-23T09:46:34.574Z,15.90
2024-04-23T09:49:04.492Z,15.70
2024-04-23T09:51:31.902Z,16.00
2024-04-23T09:54:00.426Z,16.00
2024-04-23T09:56:27.682Z,15.70
2024-04-23T09:58:55.227Z,16.00
2024-04-23T10:01:31.653Z,16.30
2024-04-23T10:04:01.128Z,16.50
2024-04-23T10:06:35.991Z,17.00
2024-04-23T10:09:07.024Z,17.30
2024-04-23T10:11:37.847Z,17.90
2024-04-23T10:14:18.973Z,18.30
2024-04-23T10:16:55.812Z,18.50
2024-04-23T10:19:24.393Z,18.40
2024-04-23T10:21:52.111Z,19.00
2024-04-23T10:24:20.179Z,19.50
2024-04-23T10:26:49.329Z,19.60
2024-04-23T10:29:17.088Z,19.30
2024-04-23T10:31:44.783Z,19.40
2024-04-23T10:34:17.172Z,19.40
2024-04-23T10:36:48.852Z,18.80
2024-04-23T10:39:18.045Z,18.10
2024-04-23T10:41:47.899Z,17.60
2024-04-23T10:44:17.316Z,17.20
2024-04-23T10:46:45.297Z,16.80
2024-04-23T10:49:19.407Z,16.60
2024-04-23T10:51:48.247Z,17.20
2024-04-23T10:54:16.465Z,18.20
2024-04-23T10:56:43.855Z,18.90
2024-04-23T10:59:13.399Z,18.80
2024-04-23T11:01:49.084Z,18.60
2024-04-23T11:04:27.864Z,18.30
2024-04-23T11:07:03.011Z,18.10
2024-04-23T11:09:35.180Z,18.20
2024-04-23T11:12:02.197Z,18.20
2024-04-23T11:14:34.122Z,18.40
2024-04-23T11:17:02.242Z,18.90
2024-04-23T11:19:39.634Z,19.70
2024-04-23T11:22:10.758Z,20.20
2024-04-23T11:24:46.648Z,19.80
2024-04-23T11:27:14.563Z,19.40
2024-04-23T11:29:42.861Z,18.70
2024-04-23T11:32:10.901Z,18.20
2024-04-23T11:34:42.031Z,18.40
2024-04-23T11:37:09.470Z,19.00
2024-04-23T11:39:37.921Z,19.10
2024-04-23T11:42:10.661Z,19.30
2024-04-23T11:44:39.609Z,19.60
2024-04-23T11:47:13.046Z,19.40
2024-04-23T11:49:42.817Z,19.00
2024-04-23T11:52:10.172Z,18.60
2024-04-23T11:54:38.808Z,18.00
2024-04-23T11:57:06.297Z,17.30
2024-04-23T11:59:33.332Z,16.80
2024-04-23T12:02:00.944Z,16.60
2024-04-23T12:04:28.652Z,16.90
2024-04-23T12:06:58.658Z,17.00
2024-04-23T12:09:26.973Z,16.80
2024-04-23T12:11:54.246Z,16.70
2024-04-23T12:14:21.352Z,16.80
2024-04-23T12:16:48.814Z,17.40
2024-04-23T12:19:15.974Z,18.60
2024-04-23T12:21:44.348Z,19.80
2024-04-23T12:24:19.211Z,20.50
2024-04-23T12:26:47.971Z,20.60
2024-04-23T12:29:15.085Z,20.50
2024-04-23T12:31:42.304Z,20.80
2024-04-23T12:34:09.458Z,21.60
2024-04-23T12:36:38.084Z,22.30
2024-04-23T12:39:13.604Z,22.70
2024-04-23T12:41:44.262Z,23.10
2024-04-23T12:44:16.926Z,23.30
2024-04-23T12:46:44.473Z,23.30
2024-04-23T12:49:12.526Z,23.40
2024-04-23T12:51:40.259Z,23.10
2024-04-23T12:54:10.446Z,23.00
2024-04-23T12:56:37.572Z,23.20
2024-04-23T12:59:10.686Z,23.80
2024-04-23T13:01:42.539Z,24.30
2024-04-23T13:04:13.095Z,24.30
2024-04-23T13:06:40.327Z,24.00
2024-04-23T13:09:07.618Z,23.30
2024-04-23T13:11:35.001Z,22.30
2024-04-23T13:14:02.128Z,21.30
2024-04-23T13:16:41.824Z,20.20
2024-04-23T13:19:14.019Z,19.30
2024-04-23T13:21:41.081Z,18.40
2024-04-23T13:24:08.508Z,18.00
2024-04-23T13:26:35.563Z,18.50
2024-04-23T13:29:02.704Z,19.20
2024-04-23T13:31:32.564Z,19.40
2024-04-23T13:33:59.973Z,19.30
2024-04-23T13:36:27.158Z,18.90
2024-04-23T13:38:54.216Z,18.50
2024-04-23T13:41:23.427Z,18.20
2024-04-23T13:43:50.612Z,17.80
2024-04-23T13:46:17.925Z,17.30
2024-04-23T13:48:47.817Z,17.00
2024-04-23T13:51:14.925Z,16.60
2024-04-23T13:53:43.204Z,16.20
2024-04-23T13:56:12.476Z,16.00
2024-04-23T13:58:40.045Z,16.00
2024-04-23T14:01:07.659Z,15.80
2024-04-23T14:03:35.017Z,15.50
2024-04-23T14:06:06.296Z,15.20
2024-04-23T14:08:34.503Z,15.00
2024-04-23T14:11:01.712Z,14.90
2024-04-23T14:13:28.770Z,14.70
2024-04-23T14:15:55.883Z,14.30
2024-04-23T14:18:22.983Z,14.30
2024-04-23T14:20:49.999Z,14.10
2024-04-23T14:23:19.662Z,13.90
2024-04-23T14:25:46.728Z,13.70
2024-04-23T14:28:14.378Z,13.50
2024-04-23T14:30:41.459Z,13.20
2024-04-23T14:33:08.588Z,13.20
2024-04-23T14:35:37.039Z,13.00
2024-04-23T14:38:04.462Z,12.90
2024-04-23T14:40:34.200Z,12.90
2024-04-23T14:43:01.452Z,12.80
2024-04-23T14:45:28.565Z,12.80
2024-04-23T14:47:58.749Z,12.80
2024-04-23T14:50:27.928Z,12.70
2024-04-23T14:52:55.598Z,12.60
2024-04-23T14:55:22.669Z,12.50
2024-04-23T14:57:55.839Z,12.50
2024-04-23T15:00:22.925Z,12.50
2024-04-23T15:02:49.944Z,12.40
2024-04-23T15:05:17.229Z,12.20
2024-04-23T15:07:44.353Z,12.10
2024-04-23T15:10:13.600Z,12.10
2024-04-23T15:12:40.712Z,12.00
2024-04-23T15:15:11.137Z,11.90
2024-04-23T15:17:38.798Z,11.80
2024-04-23T15:20:06.929Z,11.80
2024-04-23T15:22:33.983Z,11.80
2024-04-23T15:25:01.075Z,11.80
2024-04-23T15:27:28.193Z,11.70
2024-04-23T15:29:55.230Z,11.70
2024-04-23T15:32:24.977Z,11.70
2024-04-23T15:34:52.189Z,11.60
2024-04-23T15:37:19.503Z,11.50
2024-04-23T15:39:46.527Z,11.40
2024-04-23T15:42:14.081Z,11.40
2024-04-23T15:44:41.127Z,11.30
2024-04-23T15:47:08.403Z,11.20
2024-04-23T15:49:38.186Z,11.20
2024-04-23T15:52:05.754Z,11.10
2024-04-23T15:54:33.012Z,11.00
2024-04-23T15:57:00.170Z,11.00
2024-04-23T15:59:27.254Z,11.00
2024-04-23T16:01:54.348Z,11.00
2024-04-23T16:04:21.452Z,11.00
2024-04-23T16:06:51.060Z,11.00
2024-04-23T16:09:18.087Z,11.00
2024-04-23T16:11:45.767Z,11.00
2024-04-23T16:14:12.933Z,10.90
2024-04-23T16:16:40.003Z,10.80
2024-04-23T16:19:07.194Z,10.80
2024-04-23T16:21:34.250Z,10.70
2024-04-23T16:24:04.324Z,10.80
2024-04-23T16:26:31.361Z,10.70
2024-04-23T16:28:58.665Z,10.80
2024-04-23T16:31:26.437Z,10.70
2024-04-23T16:33:53.873Z,10.70
2024-04-23T16:36:24.151Z,10.60
2024-04-23T16:38:52.388Z,10.60
2024-04-23T16:41:22.634Z,10.50
2024-04-23T16:43:50.264Z,10.60
2024-04-23T16:46:20.457Z,10.60
2024-04-23T16:48:48.175Z,10.60
2024-04-23T16:51:15.515Z,10.60
2024-04-23T16:53:42.612Z,10.60
2024-04-23T16:56:10.009Z,10.60
2024-04-23T16:58:39.779Z,10.70
2024-04-23T17:01:07.364Z,10.70
2024-04-23T17:03:34.526Z,10.70
2024-04-23T17:06:01.624Z,10.70
2024-04-23T17:08:29.683Z,10.80
2024-04-23T17:11:00.119Z,10.80
2024-04-23T17:13:27.272Z,10.80
2024-04-23T17:15:59.453Z,10.70
2024-04-23T17:18:27.112Z,10.70
2024-04-23T17:20:55.937Z,10.80
2024-04-23T17:23:23.046Z,10.80
2024-04-23T17:25:50.215Z,10.90
2024-04-23T17:28:17.256Z,10.80
2024-04-23T17:30:46.232Z,10.80
2024-04-23T17:33:18.541Z,10.70
2024-04-23T17:35:45.615Z,10.60
2024-04-23T17:38:12.688Z,10.60
2024-04-23T17:40:41.295Z,10.50
2024-04-23T17:43:08.385Z,10.50
2024-04-23T17:45:35.440Z,10.40
2024-04-23T17:48:02.559Z,10.30
2024-04-23T17:50:32.298Z,10.30
2024-04-23T17:52:59.383Z,10.20
2024-04-23T17:55:26.532Z,10.20
2024-04-23T17:57:53.600Z,10.10
2024-04-23T18:00:22.842Z,10.10
2024-04-23T18:02:50.234Z,10.10
2024-04-23T18:05:17.437Z,10.10
2024-04-23T18:07:47.116Z,10.10
2024-04-23T18:10:14.397Z,10.10
2024-04-23T18:12:41.528Z,10.10
2024-04-23T18:15:08.974Z,10.10
2024-04-23T18:17:37.149Z,10.10
2024-04-23T18:20:05.029Z,10.10
2024-04-23T18:22:32.386Z,10.00
2024-04-23T18:25:02.387Z,10.00
2024-04-23T18:27:29.536Z,10.00
2024-04-23T18:29:56.612Z,9.90
2024-04-23T18:32:23.674Z,9.80
2024-04-23T18:34:50.809Z,9.80
2024-04-23T18:37:17.867Z,9.80
2024-04-23T18:39:44.965Z,9.80
2024-04-23T18:42:14.867Z,9.80
2024-04-23T18:44:41.905Z,9.80
2024-04-23T18:47:08.994Z,9.70
2024-04-23T18:49:36.080Z,9.70
2024-04-23T18:52:03.343Z,9.60
2024-04-23T18:54:31.461Z,9.50
2024-04-23T18:56:58.519Z,9.50
2024-04-23T18:59:28.128Z,9.40
2024-04-23T19:01:57.244Z,9.40
2024-04-23T19:04:24.316Z,9.40
2024-04-23T19:06:51.417Z,9.40
2024-04-23T19:09:18.504Z,9.30
2024-04-23T19:11:46.627Z,9.20
2024-04-23T19:14:16.765Z,9.10
2024-04-23T19:16:47.941Z,9.00
2024-04-23T19:19:15.413Z,8.90
2024-04-23T19:21:43.050Z,8.80
2024-04-23T19:24:10.170Z,8.80
2024-04-23T19:26:37.591Z,8.70
2024-04-23T19:29:04.869Z,8.70
2024-04-23T19:31:31.976Z,8.60
2024-04-23T19:34:02.178Z,8.60
2024-04-23T19:36:29.513Z,8.60
2024-04-23T19:38:56.667Z,8.50
2024-04-23T19:41:24.110Z,8.50
2024-04-23T19:43:53.595Z,8.40
2024-04-23T19:46:24.832Z,8.50
2024-04-23T19:48:53.186Z,8.40
2024-04-23T19:51:23.596Z,8.30
2024-04-23T19:53:51.021Z,8.30
2024-04-23T19:56:29.888Z,8.30
2024-04-23T19:58:57.686Z,8.20
2024-04-23T20:01:24.995Z,8.10
2024-04-23T20:03:52.186Z,8.10
2024-04-23T20:06:19.330Z,8.10
2024-04-23T20:08:49.006Z,8.00
2024-04-23T20:11:16.106Z,7.90
2024-04-23T20:13:43.301Z,7.80
2024-04-23T20:16:10.402Z,7.70
2024-04-23T20:18:37.653Z,7.60
2024-04-23T20:21:10.824Z,7.50
2024-04-23T20:23:37.818Z,7.40
2024-04-23T20:26:07.612Z,7.30
2024-04-23T20:28:34.782Z,7.20
2024-04-23T20:31:04.705Z,7.20
2024-04-23T20:33:31.945Z,7.20
2024-04-23T20:36:01.178Z,7.20
2024-04-23T20:38:28.182Z,7.10
2024-04-23T20:40:55.227Z,6.90
2024-04-23T20:43:24.948Z,6.90
2024-04-23T20:45:52.013Z,6.80
2024-04-23T20:48:19.112Z,6.70
2024-04-23T20:50:48.968Z,6.70
2024-04-23T20:53:16.037Z,6.60
2024-04-23T20:55:43.155Z,6.50
2024-04-23T20:58:10.205Z,6.50
2024-04-23T21:00:39.970Z,6.40
2024-04-23T21:03:07.078Z,6.40
2024-04-23T21:05:36.261Z,6.30
2024-04-23T21:08:05.311Z,6.20
2024-04-23T21:10:33.492Z,6.10
2024-04-23T21:13:04.155Z,6.00
2024-04-23T21:15:33.220Z,5.90
2024-04-23T21:18:03.442Z,5.80
2024-04-23T21:20:30.516Z,5.70
2024-04-23T21:22:57.743Z,5.70
2024-04-23T21:25:24.824Z,5.60
2024-04-23T21:27:51.866Z,5.60
2024-04-23T21:30:18.949Z,5.50
2024-04-23T21:32:46.232Z,5.50
2024-04-23T21:35:16.184Z,5.50
2024-04-23T21:37:43.329Z,5.40
2024-04-23T21:40:11.261Z,5.40
2024-04-23T21:42:41.659Z,5.30
2024-04-23T21:45:10.119Z,5.20
2024-04-23T21:47:37.832Z,5.20
2024-04-23T21:50:05.970Z,5.20
2024-04-23T21:52:41.767Z,5.10
2024-04-23T21:55:10.543Z,5.10
2024-04-23T21:57:37.947Z,5.00
2024-04-23T22:00:06.468Z,5.00
2024-04-23T22:02:37.783Z,4.90
2024-04-23T22:05:09.020Z,4.90
2024-04-23T22:07:43.330Z,4.90
2024-04-23T22:10:10.511Z,4.90
2024-04-23T22:12:37.848Z,4.90
2024-04-23T22:15:05.994Z,4.80
2024-04-23T22:17:33.118Z,4.80
2024-04-23T22:20:00.405Z,4.70
2024-04-23T22:22:27.473Z,4.70
2024-04-23T22:24:57.133Z,4.60
2024-04-23T22:27:24.246Z,4.50
2024-04-23T22:29:51.379Z,4.50
2024-04-23T22:32:18.632Z,4.40
2024-04-23T22:34:45.905Z,4.40
2024-04-23T22:37:13.002Z,4.30
2024-04-23T22:39:40.164Z,4.40
2024-04-23T22:42:09.832Z,4.30
2024-04-23T22:44:37.079Z,4.30
2024-04-23T22:47:04.213Z,4.30
2024-04-23T22:49:31.411Z,4.20
2024-04-23T22:52:00.461Z,4.20
2024-04-23T22:54:27.540Z,4.20
2024-04-23T22:56:54.652Z,4.20
2024-04-23T22:59:25.309Z,4.10
2024-04-23T23:01:52.441Z,4.10
2024-04-23T23:04:19.531Z,4.00
2024-04-23T23:06:46.624Z,4.00
2024-04-23T23:09:14.254Z,4.00
2024-04-23T23:11:41.554Z,4.00
2024-04-23T23:14:08.762Z,4.00
2024-04-23T23:16:38.610Z,4.00
2024-04-23T23:19:05.980Z,3.90
2024-04-23T23:21:33.123Z,3.90
2024-04-23T23:24:00.573Z,3.80
2024-04-23T23:26:27.665Z,3.80
2024-04-23T23:28:55.024Z,3.70
2024-04-23T23:31:22.186Z,3.70
2024-04-23T23:33:51.891Z,3.60
2024-04-23T23:36:18.942Z,3.50
2024-04-23T23:38:46.184Z,3.50
2024-04-23T23:41:13.302Z,3.50
2024-04-23T23:43:40.422Z,3.40
2024-04-23T23:46:07.560Z,3.40
2024-04-23T23:48:34.629Z,3.40
2024-04-23T23:51:04.951Z,3.30
2024-04-23T23:53:31.997Z,3.30
2024-04-23T23:55:59.128Z,3.30
2024-04-23T23:58:26.198Z,3.30
